Time;durP1;ratioP1;P1;durP2;ratioP2;P2;SDS_P1;SDS_P2;PMS_P1;PMS_P2;Temp;Humidity;BMP_temperature;BMP_pressure;BME280_temperature;BME280_humidity;BME280_pressure;Samples;Min_cycle;Max_cycle;Signal;HPM_P1;HPM_P2
2022/04/04 00:02:03;;;;;;;;;;;3.70;99.90;;;;;;5066507;28;19945;-68
2022/04/04 00:04:29;;;;;;;;;;;3.70;99.90;;;;;;5068758;28;20018;-69
2022/04/04 00:06:57;;;;;;;;;;;3.70;99.90;;;;;;5071164;28;20578;-69
2022/04/04 00:09:23;;;;;;;;;;;3.60;99.90;;;;;;5069242;28;20030;-67
2022/04/04 00:11:50;;;;;;;;;;;3.60;99.90;;;;;;5069887;28;19946;-68
2022/04/04 00:14:16;;;;;;;;;;;3.50;99.90;;;;;;5073127;28;20087;-68
2022/04/04 00:16:43;;;;;;;;;;;3.50;99.90;;;;;;5087805;28;19953;-68
2022/04/04 00:19:11;;;;;;;;;;;3.50;99.90;;;;;;5087847;28;19963;-70
2022/04/04 00:21:38;;;;;;;;;;;3.50;99.90;;;;;;5083061;28;20001;-70
2022/04/04 00:24:04;;;;;;;;;;;3.40;99.90;;;;;;5086181;28;20422;-69
2022/04/04 00:26:31;;;;;;;;;;;3.40;99.90;;;;;;5073354;28;19960;-69
2022/04/04 00:28:57;;;;;;;;;;;3.40;99.90;;;;;;5066966;28;19961;-68
2022/04/04 00:31:24;;;;;;;;;;;3.30;99.90;;;;;;5070807;28;20025;-68
2022/04/04 00:33:50;;;;;;;;;;;3.30;99.90;;;;;;5072257;28;20025;-68
2022/04/04 00:36:18;;;;;;;;;;;3.20;99.90;;;;;;5071409;28;20031;-71
2022/04/04 00:38:45;;;;;;;;;;;3.20;99.90;;;;;;5070117;28;20004;-68
2022/04/04 00:41:13;;;;;;;;;;;3.10;99.90;;;;;;5076526;28;19953;-69
2022/04/04 00:43:40;;;;;;;;;;;3.10;99.90;;;;;;5077537;28;19981;-69
2022/04/04 00:46:06;;;;;;;;;;;3.10;99.90;;;;;;5071108;28;20016;-68
2022/04/04 00:48:34;;;;;;;;;;;3.10;99.90;;;;;;5071289;28;19973;-68
2022/04/04 00:51:01;;;;;;;;;;;3.10;99.90;;;;;;5072099;28;19943;-67
2022/04/04 00:53:29;;;;;;;;;;;3.10;99.90;;;;;;5074695;28;19957;-68
2022/04/04 00:55:56;;;;;;;;;;;3.00;99.90;;;;;;5072433;28;19950;-68
2022/04/04 00:58:23;;;;;;;;;;;3.00;99.90;;;;;;5072083;28;20459;-67
2022/04/04 01:00:49;;;;;;;;;;;3.00;99.90;;;;;;5070092;28;19954;-67
2022/04/04 01:03:16;;;;;;;;;;;3.00;99.90;;;;;;5070757;28;19955;-68
2022/04/04 01:05:44;;;;;;;;;;;3.00;99.90;;;;;;5070800;28;19956;-68
2022/04/04 01:08:12;;;;;;;;;;;3.00;99.90;;;;;;5070878;28;19971;-69
2022/04/04 01:10:40;;;;;;;;;;;3.00;99.90;;;;;;5065571;28;19964;-68
2022/04/04 01:13:07;;;;;;;;;;;2.90;99.90;;;;;;5081376;28;19949;-69
2022/04/04 01:15:33;;;;;;;;;;;2.90;99.90;;;;;;5071257;28;19950;-68
2022/04/04 01:18:00;;;;;;;3.30;3.00;;;3.00;99.90;;;;;;5071530;28;20425;-67
2022/04/04 01:20:27;;;;;;;3.03;2.83;;;3.00;99.90;;;;;;5069791;28;20295;-68
2022/04/04 01:22:53;;;;;;;3.58;3.28;;;3.00;99.90;;;;;;5070503;28;20828;-69
2022/04/04 01:25:26;;;;;;;3.75;3.45;;;2.90;99.90;;;;;;5069764;28;20294;-68
2022/04/04 01:27:53;;;;;;;9.55;3.35;;;2.80;99.90;;;;;;5067757;28;20286;-69
2022/04/04 01:30:20;;;;;;;4.30;3.03;;;2.80;99.90;;;;;;5067264;28;20534;-69
2022/04/04 01:32:49;;;;;;;4.43;3.80;;;2.90;99.90;;;;;;5068995;28;20210;-70
2022/04/04 01:35:15;;;;;;;3.22;2.92;;;2.80;99.90;;;;;;5068039;28;20212;-70
2022/04/04 01:37:42;;;;;;;3.65;2.80;;;2.90;99.90;;;;;;5067366;28;20229;-69
2022/04/04 01:40:10;;;;;;;5.93;3.80;;;2.90;99.90;;;;;;5067013;28;20227;-69
2022/04/04 01:42:38;;;;;;;4.82;4.07;;;2.90;99.90;;;;;;5067772;28;20239;-69
2022/04/04 01:45:06;;;;;;;3.88;3.13;;;2.80;99.90;;;;;;5068220;28;20303;-69
2022/04/04 01:47:32;;;;;;;4.55;3.78;;;2.80;99.90;;;;;;5067601;28;20267;-69
2022/04/04 01:49:59;;;;;;;3.63;3.33;;;2.70;99.90;;;;;;5067911;28;20275;-69
2022/04/04 01:52:25;;;;;;;3.85;3.50;;;2.60;99.90;;;;;;5076355;28;20452;-69
2022/04/04 01:54:53;;;;;;;4.30;3.63;;;2.60;99.90;;;;;;5067913;28;20261;-69
2022/04/04 01:57:20;;;;;;;5.85;4.05;;;2.60;99.90;;;;;;5060283;28;20196;-69
2022/04/04 01:59:48;;;;;;;6.45;4.50;;;2.60;99.90;;;;;;5058893;28;20296;-69
2022/04/04 02:02:14;;;;;;;6.53;4.45;;;2.70;99.90;;;;;;5065473;28;20646;-68
2022/04/04 02:04:41;;;;;;;3.72;3.42;;;2.70;99.90;;;;;;5055100;28;20204;-68
2022/04/04 02:07:08;;;;;;;4.07;3.67;;;2.70;99.90;;;;;;5066922;28;20211;-69
2022/04/04 02:09:35;;;;;;;3.47;3.22;;;2.70;99.90;;;;;;5068557;28;20262;-67
2022/04/04 02:12:02;;;;;;;5.30;4.85;;;2.70;99.90;;;;;;5068643;28;20355;-69
2022/04/04 02:14:29;;;;;;;5.85;5.35;;;2.70;99.90;;;;;;5067617;28;20579;-68
2022/04/04 02:16:57;;;;;;;3.80;3.50;;;2.70;99.90;;;;;;5066894;28;20215;-66
2022/04/04 02:19:23;;;;;;;4.00;3.60;;;2.60;99.90;;;;;;5070619;28;20868;-67
2022/04/04 02:21:50;;;;;;;3.05;2.75;;;2.60;99.90;;;;;;5072726;28;20203;-70
2022/04/04 02:24:17;;;;;;;3.70;3.40;;;2.60;99.90;;;;;;5066879;28;20206;-68
2022/04/04 02:26:44;;;;;;;3.75;2.83;;;2.60;99.90;;;;;;5073655;28;20591;-68
2022/04/04 02:29:11;;;;;;;3.15;2.83;;;2.60;99.90;;;;;;5073214;28;20868;-68
2022/04/04 02:31:37;;;;;;;3.85;3.55;;;2.50;99.90;;;;;;5065649;28;20209;-71
2022/04/04 02:34:05;;;;;;;3.80;3.47;;;2.50;99.90;;;;;;5067076;28;20211;-68
2022/04/04 02:36:32;;;;;;;4.30;3.97;;;2.50;99.90;;;;;;5068206;28;20247;-69
2022/04/04 02:38:59;;;;;;;5.20;3.17;;;2.40;99.90;;;;;;5073900;28;20254;-69
2022/04/04 02:41:25;;;;;;;5.00;3.97;;;2.50;99.90;;;;;;5084340;28;20202;-68
2022/04/04 02:43:52;;;;;;;4.43;3.28;;;2.40;99.90;;;;;;5064121;28;20219;-67
2022/04/04 02:46:19;;;;;;;4.05;3.65;;;2.40;99.90;;;;;;5069815;28;20202;-67
2022/04/04 02:48:45;;;;;;;4.55;4.03;;;2.40;99.90;;;;;;5072519;28;20227;-67
2022/04/04 02:51:13;;;;;;;3.25;2.95;;;2.30;99.90;;;;;;5075814;28;20203;-68
2022/04/04 02:53:40;;;;;;;6.55;4.22;;;2.30;99.90;;;;;;5071765;28;20202;-71
2022/04/04 02:58:51;;;;;;;9.40;4.30;;;2.30;99.90;;;;;;5076859;28;20238;-67
2022/04/04 03:01:20;;;;;;;4.68;3.88;;;2.30;99.90;;;;;;5077739;28;20221;-69
2022/04/04 03:03:47;;;;;;;4.43;4.03;;;2.20;99.90;;;;;;5077126;28;20252;-69
2022/04/04 03:06:15;;;;;;;4.05;3.70;;;2.10;99.90;;;;;;5082912;28;20278;-68
2022/04/04 03:08:42;;;;;;;4.57;4.18;;;2.10;99.90;;;;;;5082954;28;20225;-68
2022/04/04 03:11:08;;;;;;;5.03;4.45;;;2.00;99.90;;;;;;5081690;28;20628;-70
2022/04/04 03:13:35;;;;;;;5.13;4.50;;;2.00;99.90;;;;;;5073885;28;20207;-69
2022/04/04 03:16:02;;;;;;;4.45;3.40;;;2.00;99.90;;;;;;5078875;28;20303;-70
2022/04/04 03:18:28;;;;;;;4.60;4.15;;;2.00;99.90;;;;;;5080511;28;20220;-67
2022/04/04 03:20:55;;;;;;;7.30;5.13;;;2.00;99.90;;;;;;5076708;28;20792;-71
2022/04/04 03:23:25;;;;;;;5.20;4.20;;;2.00;99.90;;;;;;5067233;28;20204;-67
2022/04/04 03:25:52;;;;;;;5.90;4.75;;;1.90;99.90;;;;;;5066802;28;20749;-69
2022/04/04 03:28:19;;;;;;;5.00;4.55;;;1.90;99.90;;;;;;5061267;28;20251;-65
2022/04/04 03:30:45;;;;;;;3.90;3.53;;;1.90;99.90;;;;;;5065605;28;20628;-65
2022/04/04 03:33:12;;;;;;;5.03;4.47;;;1.90;99.90;;;;;;5066204;28;20674;-67
2022/04/04 03:35:39;;;;;;;4.82;4.38;;;1.90;99.90;;;;;;5064733;28;20209;-65
2022/04/04 03:38:07;;;;;;;4.80;4.40;;;1.90;99.90;;;;;;5066151;28;20691;-64
2022/04/04 03:40:36;;;;;;;9.65;5.22;;;1.80;99.90;;;;;;5065423;28;20297;-66
2022/04/04 03:43:03;;;;;;;5.70;4.97;;;1.90;99.90;;;;;;5060536;28;20280;-65
2022/04/04 03:45:31;;;;;;;4.97;4.03;;;1.80;99.90;;;;;;5064170;28;20197;-66
2022/04/04 03:47:59;;;;;;;6.95;5.82;;;1.80;99.90;;;;;;5064997;28;20624;-64
2022/04/04 03:50:28;;;;;;;7.05;5.90;;;1.80;99.90;;;;;;5063589;28;20198;-65
2022/04/04 03:52:56;;;;;;;6.32;5.70;;;1.80;99.90;;;;;;5066956;28;20213;-67
2022/04/04 03:55:25;;;;;;;6.65;4.85;;;1.80;99.90;;;;;;5062447;28;20325;-67
2022/04/04 03:57:53;;;;;;;5.25;4.75;;;1.90;99.90;;;;;;5058779;28;20219;-69
2022/04/04 04:00:21;;;;;;;6.88;5.13;;;1.90;99.90;;;;;;5067202;28;20289;-67
2022/04/04 04:02:48;;;;;;;7.88;5.75;;;1.80;99.90;;;;;;5063154;28;20197;-67
2022/04/04 04:05:15;;;;;;;5.38;4.90;;;1.90;99.90;;;;;;5060349;28;20209;-67
2022/04/04 04:07:42;;;;;;;5.35;4.85;;;1.90;99.90;;;;;;5065418;28;20229;-69
2022/04/04 04:10:11;;;;;;;5.50;4.47;;;1.90;99.90;;;;;;5065299;28;20210;-70
2022/04/04 04:12:39;;;;;;;4.35;3.88;;;1.90;99.90;;;;;;5065048;28;20202;-70
2022/04/04 04:15:09;;;;;;;3.35;3.05;;;2.00;99.90;;;;;;5065786;28;20202;-69
2022/04/04 04:17:36;;;;;;;9.48;4.70;;;2.00;99.90;;;;;;5070540;28;20221;-67
2022/04/04 04:20:23;;;;;;;4.07;3.78;;;2.00;99.90;;;;;;5069944;28;20361;-68
2022/04/04 04:22:54;;;;;;;3.97;3.55;;;2.00;99.90;;;;;;5065896;28;20732;-67
2022/04/04 04:25:22;;;;;;;8.30;4.45;;;2.10;99.90;;;;;;5067097;28;20265;-68
2022/04/04 04:27:49;;;;;;;4.80;4.40;;;2.10;99.90;;;;;;5067634;28;20286;-71
2022/04/04 04:30:17;;;;;;;8.38;5.47;;;2.10;99.90;;;;;;5069434;28;20199;-66
2022/04/04 04:32:46;;;;;;;4.65;4.22;;;2.20;99.90;;;;;;5068682;28;20253;-67
2022/04/04 04:35:13;;;;;;;5.00;4.60;;;2.20;99.90;;;;;;5069819;28;20693;-70
2022/04/04 04:37:40;;;;;;;6.65;4.40;;;2.20;99.90;;;;;;5070062;28;20276;-68
2022/04/04 04:40:07;;;;;;;4.25;3.85;;;2.30;99.90;;;;;;5059218;28;20299;-67
2022/04/04 04:42:34;;;;;;;14.23;4.60;;;2.30;99.90;;;;;;5067877;28;20231;-67
2022/04/04 04:45:02;;;;;;;4.40;4.00;;;2.40;99.90;;;;;;5062487;28;20205;-67
2022/04/04 04:47:30;;;;;;;6.22;4.72;;;2.40;99.90;;;;;;5068999;28;20891;-68
2022/04/04 04:49:58;;;;;;;6.07;5.40;;;2.40;99.90;;;;;;5069364;28;20204;-68
2022/04/04 04:52:25;;;;;;;5.10;3.80;;;2.40;99.90;;;;;;5069468;28;20209;-68
2022/04/04 04:54:52;;;;;;;8.88;4.07;;;2.30;99.90;;;;;;5074381;28;20201;-67
2022/04/04 04:57:19;;;;;;;7.63;6.00;;;2.30;99.90;;;;;;5066177;28;20282;-68
2022/04/04 04:59:46;;;;;;;4.88;4.40;;;2.40;99.90;;;;;;5072822;28;20304;-71
2022/04/04 05:02:12;;;;;;;9.38;5.10;;;2.40;99.90;;;;;;5076669;28;20195;-71
2022/04/04 05:04:40;;;;;;;6.20;4.80;;;2.40;99.90;;;;;;5069871;28;20206;-73
2022/04/04 05:07:08;;;;;;;4.88;4.38;;;2.50;99.90;;;;;;5075788;28;20200;-69
2022/04/04 05:09:34;;;;;;;4.88;4.38;;;2.50;99.90;;;;;;5074039;28;20313;-69
2022/04/04 05:12:01;;;;;;;5.32;3.45;;;2.50;99.90;;;;;;5063772;28;20204;-69
2022/04/04 05:14:28;;;;;;;3.10;2.88;;;2.50;99.90;;;;;;5072330;28;20209;-70
2022/04/04 05:16:55;;;;;;;5.25;3.38;;;2.60;99.90;;;;;;5068866;28;20231;-69
2022/04/04 05:19:22;;;;;;;4.28;3.88;;;2.60;99.90;;;;;;5063738;28;20226;-69
2022/04/04 05:21:51;;;;;;;5.20;4.57;;;2.70;99.90;;;;;;5062353;28;20261;-67
2022/04/04 05:24:18;;;;;;;3.33;3.03;;;2.70;99.90;;;;;;5067930;28;20811;-67
2022/04/04 05:26:46;;;;;;;3.92;3.53;;;2.70;99.90;;;;;;5069175;28;20681;-67
2022/04/04 05:29:13;;;;;;;4.65;4.25;;;2.70;99.90;;;;;;5067863;28;20724;-67
2022/04/04 05:31:39;;;;;;;5.22;3.60;;;2.80;99.90;;;;;;5065005;28;20205;-68
2022/04/04 05:34:07;;;;;;;21.27;5.22;;;2.80;99.90;;;;;;5066466;28;20281;-68
2022/04/04 05:36:34;;;;;;;7.53;3.80;;;2.80;99.90;;;;;;5053690;28;20195;-69
2022/04/04 05:39:04;;;;;;;3.78;3.35;;;2.90;99.90;;;;;;5065213;28;20688;-68
2022/04/04 05:41:30;;;;;;;4.85;3.15;;;2.90;99.90;;;;;;5047338;28;20717;-70
2022/04/04 05:43:57;;;;;;;4.78;4.05;;;2.90;99.90;;;;;;5062301;28;20256;-70
2022/04/04 05:46:25;;;;;;;4.07;3.20;;;3.00;99.90;;;;;;5064805;28;20262;-68
2022/04/04 05:48:52;;;;;;;4.60;4.00;;;3.00;99.90;;;;;;5065693;28;20231;-69
2022/04/04 05:51:18;;;;;;;6.95;3.45;;;3.10;99.90;;;;;;5067161;28;20253;-68
2022/04/04 05:53:46;;;;;;;3.58;2.70;;;3.10;99.90;;;;;;5065657;28;20202;-70
2022/04/04 05:56:14;;;;;;;4.35;3.95;;;3.20;99.90;;;;;;5060916;28;20257;-70
2022/04/04 05:58:41;;;;;;;3.63;3.33;;;3.20;99.90;;;;;;5085914;28;20223;-69
2022/04/04 06:01:09;;;;;;;3.88;3.58;;;3.30;99.90;;;;;;5076065;28;20328;-69
2022/04/04 06:03:36;;;;;;;3.90;3.53;;;3.40;99.90;;;;;;5069170;28;20232;-68
2022/04/04 06:06:02;;;;;;;4.07;3.65;;;3.40;99.90;;;;;;5067843;28;20280;-69
2022/04/04 06:08:30;;;;;;;3.65;3.35;;;3.50;99.90;;;;;;5067942;28;20275;-69
2022/04/04 06:10:57;;;;;;;3.17;2.63;;;3.60;99.90;;;;;;5063166;28;20665;-68
2022/04/04 06:13:25;;;;;;;5.40;3.65;;;3.70;99.90;;;;;;5075273;28;20186;-70
2022/04/04 06:15:52;;;;;;;4.90;3.72;;;3.70;99.90;;;;;;5082091;28;20199;-69
2022/04/04 06:18:18;;;;;;;5.05;3.15;;;3.80;99.90;;;;;;5084377;28;20253;-68
2022/04/04 06:20:45;;;;;;;4.28;3.88;;;3.80;99.90;;;;;;5070798;28;20360;-70
2022/04/04 06:23:12;;;;;;;3.85;3.38;;;3.80;99.90;;;;;;5069382;28;20210;-71
2022/04/04 06:25:39;;;;;;;3.80;2.88;;;3.80;99.90;;;;;;5067634;28;20283;-68
2022/04/04 06:28:06;;;;;;;3.67;3.30;;;3.80;99.90;;;;;;5065252;28;20229;-68
2022/04/04 06:30:35;;;;;;;8.55;3.80;;;3.90;99.90;;;;;;5062212;28;20202;-69
2022/04/04 06:33:04;;;;;;;4.38;3.53;;;3.90;99.90;;;;;;5062170;28;20355;-68
2022/04/04 06:35:31;;;;;;;4.10;3.25;;;4.00;99.90;;;;;;5068305;28;20224;-68
2022/04/04 06:38:00;;;;;;;4.50;3.45;;;4.00;99.90;;;;;;5067244;28;20358;-68
2022/04/04 06:40:27;;;;;;;5.22;4.18;;;4.10;99.90;;;;;;5067479;28;20208;-68
2022/04/04 06:42:55;;;;;;;3.28;3.08;;;4.00;99.90;;;;;;5067525;28;20227;-67
2022/04/04 06:45:22;;;;;;;3.53;3.22;;;4.10;99.90;;;;;;5067399;28;20200;-68
2022/04/04 06:47:51;;;;;;;3.15;2.85;;;4.10;99.90;;;;;;5064786;28;20220;-69
2022/04/04 06:50:18;;;;;;;3.55;3.25;;;4.10;99.90;;;;;;5065717;28;20299;-68
2022/04/04 06:52:45;;;;;;;3.47;3.17;;;4.10;99.90;;;;;;5072336;28;20203;-69
2022/04/04 06:55:12;;;;;;;3.05;2.85;;;4.10;99.90;;;;;;5066386;28;20585;-69
2022/04/04 06:57:39;;;;;;;2.92;2.35;;;4.10;99.90;;;;;;5066991;28;20278;-68
2022/04/04 07:00:08;;;;;;;4.10;3.63;;;4.10;99.90;;;;;;5064838;28;20214;-68
2022/04/04 07:02:36;;;;;;;3.17;2.88;;;4.10;99.90;;;;;;5059775;28;20311;-72
2022/04/04 07:05:05;;;;;;;13.93;3.10;;;4.10;99.90;;;;;;5060396;28;20201;-68
2022/04/04 07:07:32;;;;;;;3.42;3.05;;;4.10;99.90;;;;;;5063165;28;20240;-68
2022/04/04 07:10:01;;;;;;;3.75;3.45;;;4.10;99.90;;;;;;5085580;28;21270;-69
2022/04/04 07:12:29;;;;;;;3.00;2.65;;;4.20;99.90;;;;;;5074107;28;20196;-70
2022/04/04 07:14:56;;;;;;;10.20;2.60;;;4.30;99.90;;;;;;5074435;28;20205;-63
2022/04/04 07:17:23;;;;;;;3.90;2.63;;;4.50;99.90;;;;;;5085672;28;20215;-63
2022/04/04 07:19:49;;;;;;;2.78;2.58;;;4.80;99.90;;;;;;5086173;28;20208;-68
2022/04/04 07:22:17;;;;;;;3.15;2.70;;;5.00;99.90;;;;;;5083070;28;20263;-67
2022/04/04 07:24:44;;;;;;;2.63;2.28;;;5.10;99.90;;;;;;5084541;28;20204;-68
2022/04/04 07:27:11;;;;;;;6.13;2.85;;;5.10;99.90;;;;;;5085936;28;20208;-69
2022/04/04 07:29:38;;;;;;;2.65;2.45;;;5.20;99.90;;;;;;5085868;28;20720;-68
2022/04/04 07:32:05;;;;;;;2.88;2.60;;;5.50;99.90;;;;;;5085353;28;20201;-68
2022/04/04 07:34:32;;;;;;;4.15;2.70;;;5.80;99.90;;;;;;5085357;28;20247;-68
2022/04/04 07:36:58;;;;;;;3.30;2.78;;;6.10;99.90;;;;;;5087575;28;20349;-68
2022/04/04 07:39:26;;;;;;;2.53;2.35;;;6.20;99.90;;;;;;5073534;28;20231;-67
2022/04/04 07:41:54;;;;;;;2.88;2.28;;;6.20;99.90;;;;;;5092892;28;20213;-68
2022/04/04 07:44:20;;;;;;;3.20;2.90;;;6.30;99.90;;;;;;5091598;28;20215;-69
2022/04/04 07:46:47;;;;;;;3.00;2.65;;;6.40;99.90;;;;;;5087730;28;20933;-68
2022/04/04 07:49:14;;;;;;;3.00;2.75;;;6.50;99.90;;;;;;5086057;28;20230;-67
2022/04/04 07:51:40;;;;;;;2.60;2.40;;;6.60;99.90;;;;;;5096111;28;20206;-67
2022/04/04 07:54:07;;;;;;;2.70;1.98;;;6.60;99.90;;;;;;5093854;28;20199;-66
2022/04/04 07:56:35;;;;;;;3.08;2.67;;;6.70;99.90;;;;;;5098761;28;20237;-69
2022/04/04 07:59:02;;;;;;;2.75;2.35;;;6.80;99.90;;;;;;5094316;28;20725;-67
2022/04/04 08:01:29;;;;;;;2.60;2.40;;;7.00;99.90;;;;;;5091439;28;20227;-67
2022/04/04 08:03:55;;;;;;;3.13;2.80;;;7.10;99.90;;;;;;5088641;28;20683;-69
2022/04/04 08:06:22;;;;;;;1.90;1.58;;;7.30;99.90;;;;;;5076876;28;20212;-68
2022/04/04 08:08:49;;;;;;;3.42;3.00;;;7.40;99.90;;;;;;5081252;28;20289;-69
2022/04/04 08:11:15;;;;;;;2.50;2.05;;;7.50;99.90;;;;;;5082527;28;20201;-67
2022/04/04 08:13:45;;;;;;;5.30;2.00;;;7.60;99.90;;;;;;5081355;28;20200;-70
2022/04/04 08:16:12;;;;;;;1.90;1.75;;;7.70;99.90;;;;;;5085768;28;20192;-69
2022/04/04 08:18:39;;;;;;;2.65;2.17;;;7.80;99.90;;;;;;5082097;28;20228;-68
2022/04/04 08:21:06;;;;;;;2.22;1.80;;;7.90;99.90;;;;;;5087038;28;20661;-68
2022/04/04 08:23:32;;;;;;;2.28;1.50;;;8.00;99.90;;;;;;5087038;28;20318;-70
2022/04/04 08:26:00;;;;;;;1.80;1.40;;;8.00;99.90;;;;;;5080683;28;20209;-68
2022/04/04 08:28:29;;;;;;;5.32;1.85;;;8.20;99.90;;;;;;5083666;28;20277;-70
2022/04/04 08:30:57;;;;;;;1.77;1.52;;;8.10;99.90;;;;;;5090128;28;20200;-67
2022/04/04 08:33:24;;;;;;;1.85;1.75;;;8.10;99.90;;;;;;5085432;28;20643;-68
2022/04/04 08:35:53;;;;;;;6.18;2.65;;;8.00;99.90;;;;;;5086547;28;20202;-69
2022/04/04 08:38:20;;;;;;;1.70;1.48;;;8.10;99.90;;;;;;5084496;28;20706;-69
2022/04/04 08:40:49;;;;;;;2.80;2.60;;;8.10;99.90;;;;;;5090280;28;20200;-68
2022/04/04 08:43:18;;;;;;;2.47;2.20;;;8.20;99.90;;;;;;5087958;28;20257;-70
2022/04/04 08:45:48;;;;;;;2.05;1.77;;;8.30;99.90;;;;;;5085418;28;20236;-68
2022/04/04 08:48:17;;;;;;;2.25;2.05;;;8.20;99.90;;;;;;5089037;28;20448;-67
2022/04/04 08:50:44;;;;;;;1.67;1.38;;;8.20;99.90;;;;;;5086565;28;20291;-67
2022/04/04 08:53:11;;;;;;;1.48;1.30;;;8.40;99.90;;;;;;5073585;28;20692;-71
2022/04/04 08:55:38;;;;;;;2.78;1.35;;;8.50;99.90;;;;;;5088146;28;20204;-68
2022/04/04 08:58:05;;;;;;;2.05;1.75;;;8.50;99.90;;;;;;5090512;28;20224;-69
2022/04/04 09:00:33;;;;;;;1.50;1.40;;;8.40;99.90;;;;;;5082677;28;20212;-70
2022/04/04 09:03:02;;;;;;;1.90;1.67;;;8.40;99.90;;;;;;5084746;28;20562;-68
2022/04/04 09:05:32;;;;;;;1.40;1.30;;;8.40;99.90;;;;;;5076520;28;20213;-68
2022/04/04 09:08:01;;;;;;;1.70;1.60;;;8.50;99.90;;;;;;5085064;28;20716;-68
2022/04/04 09:10:34;;;;;;;2.92;1.88;;;8.40;99.90;;;;;;5091053;28;20548;-69
2022/04/04 09:13:13;;;;;;;2.35;1.55;;;8.30;99.90;;;;;;5082485;28;20208;-68
2022/04/04 09:15:58;;;;;;;1.77;1.67;;;8.30;99.90;;;;;;5083136;28;20292;-68
2022/04/04 09:18:49;;;;;;;1.70;1.60;;;8.10;99.90;;;;;;5088878;28;20232;-69
2022/04/04 09:21:35;;;;;;;2.00;1.80;;;8.10;99.90;;;;;;5085777;28;20233;-69
2022/04/04 09:24:07;;;;;;;1.67;1.58;;;8.10;99.90;;;;;;5085350;28;20279;-68
2022/04/04 09:26:36;;;;;;;2.20;2.00;;;8.00;99.90;;;;;;5090622;28;20335;-68
2022/04/04 09:29:07;;;;;;;2.63;2.10;;;8.00;99.90;;;;;;5089524;28;20242;-68
2022/04/04 09:31:35;;;;;;;2.33;2.03;;;8.00;99.90;;;;;;5092032;28;20247;-69
2022/04/04 09:34:03;;;;;;;1.48;1.38;;;8.10;99.90;;;;;;5092262;28;20575;-68
2022/04/04 09:36:32;;;;;;;1.55;1.45;;;8.20;99.90;;;;;;5087242;28;21339;-70
2022/04/04 09:39:05;;;;;;;2.47;1.40;;;8.30;99.90;;;;;;5084774;28;20819;-68
2022/04/04 09:41:32;;;;;;;2.33;1.98;;;8.50;99.90;;;;;;5085992;28;20220;-68
2022/04/04 09:44:02;;;;;;;2.70;1.95;;;8.60;99.90;;;;;;5086557;28;20213;-68
2022/04/04 09:46:36;;;;;;;1.60;1.20;;;8.70;99.90;;;;;;5085952;28;20204;-68
2022/04/04 09:49:08;;;;;;;1.45;1.35;;;8.60;99.90;;;;;;5087061;28;20242;-68
2022/04/04 09:51:39;;;;;;;3.40;2.28;;;8.70;99.90;;;;;;5083151;28;20277;-68
2022/04/04 09:54:07;;;;;;;1.73;1.50;;;8.80;99.90;;;;;;5084319;28;20313;-68
2022/04/04 09:56:34;;;;;;;1.92;1.50;;;8.90;99.90;;;;;;5083972;28;20272;-67
2022/04/04 09:59:01;;;;;;;1.90;1.80;;;8.80;99.90;;;;;;5085506;28;20220;-69
2022/04/04 10:01:28;;;;;;;1.48;1.30;;;8.70;99.90;;;;;;5085438;28;20522;-68
2022/04/04 10:03:57;;;;;;;4.88;1.80;;;8.60;99.90;;;;;;5086438;28;20208;-68
2022/04/04 10:06:27;;;;;;;2.47;2.03;;;8.50;99.90;;;;;;5085857;28;20199;-68
2022/04/04 10:08:57;;;;;;;2.83;1.93;;;8.40;99.90;;;;;;5089759;28;20224;-66
2022/04/04 10:11:25;;;;;;;2.35;1.77;;;8.50;99.90;;;;;;5085482;28;20458;-67
2022/04/04 10:13:53;;;;;;;2.42;2.22;;;8.50;99.90;;;;;;5088274;28;20208;-67
2022/04/04 10:16:22;;;;;;;2.33;2.13;;;8.30;99.90;;;;;;5098214;28;20436;-68
2022/04/04 10:18:49;;;;;;;4.10;2.47;;;8.20;99.90;;;;;;5098992;28;20290;-71
2022/04/04 10:21:16;;;;;;;2.72;2.33;;;8.10;99.90;;;;;;5102464;28;20212;-68
2022/04/04 10:23:44;;;;;;;1.77;1.30;;;8.00;99.90;;;;;;5088882;28;20220;-67
2022/04/04 10:26:14;;;;;;;1.73;1.63;;;7.80;99.90;;;;;;5087727;28;20303;-69
2022/04/04 10:28:44;;;;;;;1.90;1.45;;;7.80;99.90;;;;;;5090683;28;20318;-68
2022/04/04 10:31:13;;;;;;;5.38;1.80;;;7.80;99.90;;;;;;5087478;28;20666;-68
2022/04/04 10:33:40;;;;;;;1.90;1.70;;;7.90;99.90;;;;;;5081100;28;20218;-70
2022/04/04 10:36:08;;;;;;;3.22;2.55;;;8.10;99.90;;;;;;5093400;28;20220;-68
2022/04/04 10:38:37;;;;;;;2.03;1.80;;;8.10;99.90;;;;;;5076514;28;20732;-68
2022/04/04 10:41:07;;;;;;;2.45;2.17;;;8.20;99.90;;;;;;5086121;28;20208;-68
2022/04/04 10:43:37;;;;;;;9.57;2.60;;;8.20;99.90;;;;;;5079394;28;20224;-68
2022/04/04 10:46:08;;;;;;;2.35;1.73;;;8.30;99.90;;;;;;5079444;28;20204;-70
2022/04/04 10:48:37;;;;;;;2.28;1.60;;;8.40;99.90;;;;;;5081446;28;20727;-69
2022/04/04 10:51:13;;;;;;;2.33;2.20;;;8.40;99.90;;;;;;5073454;28;20201;-69
2022/04/04 10:53:44;;;;;;;3.55;2.60;;;8.40;99.90;;;;;;5083702;28;20195;-67
2022/04/04 10:56:17;;;;;;;0.98;0.88;;;8.40;99.90;;;;;;5082809;28;20589;-69
2022/04/04 10:58:45;;;;;;;2.50;2.00;;;8.40;99.90;;;;;;5085236;28;20219;-69
2022/04/04 11:01:16;;;;;;;2.45;2.25;;;8.30;99.90;;;;;;5081744;28;20216;-72
2022/04/04 11:03:57;;;;;;;2.65;1.95;;;8.20;99.90;;;;;;5088232;28;20231;-70
2022/04/04 11:09:26;;;;;;;2.40;2.20;;;8.10;99.90;;;;;;5084624;28;20235;-70
2022/04/04 11:11:55;;;;;;;1.52;1.30;;;8.10;99.90;;;;;;5091617;28;20224;-70
2022/04/04 11:14:53;;;;;;;2.42;2.03;;;8.10;99.90;;;;;;5091993;28;20267;-70
2022/04/04 11:17:23;;;;;;;2.97;2.10;;;8.00;99.90;;;;;;5085778;28;20265;-69
2022/04/04 11:19:52;;;;;;;2.55;2.35;;;7.70;99.90;;;;;;5087587;28;20223;-71
2022/04/04 11:22:21;;;;;;;2.50;2.10;;;7.40;99.90;;;;;;5091762;28;20309;-69
2022/04/04 11:24:52;;;;;;;4.47;3.30;;;7.00;99.90;;;;;;5090561;28;20648;-69
2022/04/04 11:27:19;;;;;;;1.95;1.85;;;6.60;99.90;;;;;;5082777;28;20268;-69
2022/04/04 11:29:47;;;;;;;3.60;1.85;;;6.50;99.90;;;;;;5091201;28;20546;-69
2022/04/04 11:32:16;;;;;;;2.17;1.95;;;6.40;99.90;;;;;;5085149;28;20200;-69
2022/04/04 11:34:43;;;;;;;3.47;2.75;;;6.20;99.90;;;;;;5091460;28;20216;-69
2022/04/04 11:37:17;;;;;;;2.70;1.85;;;6.20;99.90;;;;;;5093948;28;20204;-68
2022/04/04 11:39:45;;;;;;;1.85;1.65;;;6.20;99.90;;;;;;5094073;28;20215;-69
2022/04/04 11:42:11;;;;;;;1.95;1.85;;;6.30;99.90;;;;;;5092614;28;20220;-70
2022/04/04 11:44:47;;;;;;;2.33;1.90;;;6.50;99.90;;;;;;5095809;28;20569;-70
2022/04/04 11:47:16;;;;;;;2.28;2.08;;;6.60;99.90;;;;;;5095898;28;20199;-69
2022/04/04 11:49:46;;;;;;;3.60;2.03;;;6.60;99.90;;;;;;5094649;28;20196;-69
2022/04/04 11:52:14;;;;;;;2.03;1.92;;;6.30;99.90;;;;;;5085871;28;20196;-69
2022/04/04 11:54:42;;;;;;;2.28;1.80;;;6.10;99.90;;;;;;5091764;28;20204;-70
2022/04/04 11:57:10;;;;;;;2.28;2.10;;;6.00;99.90;;;;;;5092626;28;20719;-69
2022/04/04 11:59:37;;;;;;;1.67;1.58;;;5.90;99.90;;;;;;5089911;28;21028;-69
2022/04/04 12:02:08;;;;;;;4.85;2.30;;;6.00;99.90;;;;;;5090819;28;20701;-69
2022/04/04 12:04:36;;;;;;;2.00;1.80;;;5.80;99.90;;;;;;5090299;28;20220;-68
2022/04/04 12:07:04;;;;;;;2.47;2.13;;;5.70;99.90;;;;;;5090390;28;20275;-68
2022/04/04 12:09:31;;;;;;;2.75;2.50;;;5.50;99.90;;;;;;5082893;28;20240;-69
2022/04/04 12:12:08;;;;;;;2.90;2.70;;;5.40;99.90;;;;;;5090125;28;20678;-67
2022/04/04 12:14:37;;;;;;;2.05;1.95;;;5.40;99.90;;;;;;5089505;28;20207;-68
2022/04/04 12:17:06;;;;;;;2.25;2.05;;;5.40;99.90;;;;;;5083100;28;20332;-67
2022/04/04 12:19:42;;;;;;;6.07;2.20;;;5.30;99.90;;;;;;5093836;28;20646;-68
2022/04/04 12:24:55;;;;;;;3.72;3.10;;;5.30;99.90;;;;;;5094033;28;20204;-67
2022/04/04 12:24:59;;;;;;;1.75;1.65;;;5.30;99.90;;;;;;5102192;28;20249;-67
2022/04/04 12:27:26;;;;;;;4.22;3.92;;;5.30;99.90;;;;;;5101760;28;20249;-68
2022/04/04 12:29:59;;;;;;;3.28;2.38;;;5.30;99.90;;;;;;5098234;28;20215;-69
2022/04/04 12:32:32;;;;;;;2.95;2.65;;;5.20;99.90;;;;;;5087517;28;20200;-69
2022/04/04 12:35:01;;;;;;;3.38;3.08;;;5.10;99.90;;;;;;5089673;28;20204;-70
2022/04/04 12:37:35;;;;;;;3.80;2.80;;;5.00;99.90;;;;;;5087282;28;20242;-67
2022/04/04 12:40:16;;;;;;;4.10;2.65;;;4.90;99.90;;;;;;5088606;28;20320;-67
2022/04/04 12:42:43;;;;;;;2.70;2.22;;;4.90;99.90;;;;;;5088245;28;20230;-68
2022/04/04 12:45:11;;;;;;;2.30;2.13;;;4.90;99.90;;;;;;5104552;28;20238;-67
2022/04/04 12:50:39;;;;;;;3.97;2.88;;;4.90;99.90;;;;;;5096792;27;20600;-69
2022/04/04 12:53:09;;;;;;;2.92;2.58;;;4.70;99.90;;;;;;5080735;28;20215;-69
2022/04/04 12:55:36;;;;;;;8.55;3.40;;;4.60;99.90;;;;;;5079752;28;20902;-69
2022/04/04 12:58:18;;;;;;;3.83;2.70;;;4.60;99.90;;;;;;5076095;28;20239;-67
2022/04/04 13:00:46;;;;;;;2.33;2.13;;;4.50;99.90;;;;;;5075025;28;20204;-69
2022/04/04 13:03:22;;;;;;;3.65;3.13;;;4.50;99.90;;;;;;5073042;28;20215;-69
2022/04/04 13:05:51;;;;;;;3.72;3.00;;;4.40;99.90;;;;;;5080273;28;20207;-69
2022/04/04 13:08:19;;;;;;;4.25;2.40;;;4.40;99.90;;;;;;5079478;28;20223;-70
2022/04/04 13:11:02;;;;;;;4.22;3.85;;;4.50;99.90;;;;;;5073146;28;20239;-69
2022/04/04 13:13:29;;;;;;;3.40;3.10;;;4.50;99.90;;;;;;5067001;28;20192;-69
2022/04/04 13:15:56;;;;;;;3.20;2.88;;;4.50;99.90;;;;;;5066524;28;20237;-69
2022/04/04 13:18:23;;;;;;;5.53;4.45;;;4.60;99.90;;;;;;5080379;28;20242;-69
2022/04/04 13:20:51;;;;;;;4.13;3.83;;;4.60;99.90;;;;;;5080060;28;20611;-69